Time;durP1;ratioP1;P1;durP2;ratioP2;P2;SDS_P1;SDS_P2;PMS_P1;PMS_P2;Temp;Humidity;BMP_temperature;BMP_pressure;BME280_temperature;BME280_humidity;BME280_pressure;Samples;Min_cycle;Max_cycle;Signal;HPM_P1;HPM_P2
2022/09/24 00:01:32;;;;;;;7.30;6.60;;;;;;;6.22;100.00;99296.13;6281295;22;20279;-80
2022/09/24 00:04:03;;;;;;;7.63;6.87;;;;;;;6.20;100.00;99301.63;6280767;22;20191;-80
2022/09/24 00:06:34;;;;;;;7.67;6.90;;;;;;;6.24;100.00;99303.91;6281074;22;20208;-80
2022/09/24 00:09:00;;;;;;;7.17;6.47;;;;;;;6.24;100.00;99296.75;6254236;22;20210;-81
2022/09/24 00:11:27;;;;;;;7.47;6.77;;;;;;;6.21;100.00;99297.13;6281193;22;20204;-81
2022/09/24 00:13:55;;;;;;;7.90;6.70;;;;;;;6.18;100.00;99298.38;6282305;22;20215;-81
2022/09/24 00:16:24;;;;;;;7.30;6.60;;;;;;;6.19;100.00;99301.84;6281389;22;20196;-80
2022/09/24 00:18:52;;;;;;;8.20;6.70;;;;;;;6.17;100.00;99296.72;6280988;22;20279;-80
2022/09/24 00:21:22;;;;;;;7.30;6.60;;;;;;;6.11;100.00;99292.19;6253332;22;20215;-80
2022/09/24 00:23:54;;;;;;;7.30;6.60;;;;;;;6.12;100.00;99298.31;6280709;22;20547;-80
2022/09/24 00:29:07;;;;;;;7.57;6.40;;;;;;;6.09;100.00;99293.41;6280490;22;20246;-81
2022/09/24 00:31:34;;;;;;;8.07;7.27;;;;;;;6.05;100.00;99294.84;6252689;22;20204;-80
2022/09/24 00:34:01;;;;;;;8.30;6.27;;;;;;;5.98;100.00;99294.78;6277739;22;20589;-80
2022/09/24 00:36:28;;;;;;;7.10;6.40;;;;;;;5.94;100.00;99292.72;6278367;22;20683;-81
2022/09/24 00:42:52;;;;;;;7.03;6.37;;;;;;;5.83;100.00;99283.47;6224917;23;20347;-79
2022/09/24 00:45:19;;;;;;;6.43;5.80;;;;;;;5.78;100.00;99289.34;6209931;23;20229;-79
2022/09/24 00:47:46;;;;;;;6.80;6.10;;;;;;;5.75;100.00;99287.09;6195216;23;20700;-79
2022/09/24 00:50:45;;;;;;;7.20;6.13;;;;;;;5.69;100.00;99292.41;6210448;23;20687;-80
2022/09/24 00:53:17;;;;;;;6.87;6.17;;;;;;;5.67;100.00;99284.59;6098620;23;20210;-80
2022/09/24 00:55:49;;;;;;;7.53;5.97;;;;;;;5.73;100.00;99280.34;6212007;23;20696;-79
2022/09/24 00:58:16;;;;;;;6.10;5.60;;;;;;;5.79;100.00;99276.88;6186054;23;20217;-80
2022/09/24 01:00:43;;;;;;;6.40;5.80;;;;;;;5.74;100.00;99274.00;6186903;23;20725;-80
2022/09/24 01:03:13;;;;;;;6.87;6.20;;;;;;;5.71;100.00;99275.22;6211664;23;20288;-80
2022/09/24 01:05:40;;;;;;;6.70;5.97;;;;;;;5.64;100.00;99268.25;6190110;23;20704;-81
2022/09/24 01:08:11;;;;;;;6.37;5.70;;;;;;;5.72;100.00;99260.09;6217167;23;20205;-80
2022/09/24 01:10:48;;;;;;;6.40;5.67;;;;;;;5.70;100.00;99270.91;6202195;23;20378;-80
2022/09/24 01:13:23;;;;;;;6.07;5.57;;;;;;;5.59;100.00;99268.00;6217145;23;20753;-81
2022/09/24 01:16:15;;;;;;;6.20;5.60;;;;;;;5.62;100.00;99264.94;6191081;23;20223;-81
2022/09/24 01:18:54;;;;;;;5.90;5.33;;;;;;;5.55;100.00;99277.38;6200501;23;20201;-81
2022/09/24 01:21:42;;;;;;;5.50;5.00;;;;;;;5.48;100.00;99274.69;6216642;23;20209;-80
2022/09/24 01:24:23;;;;;;;6.10;5.50;;;;;;;5.52;100.00;99267.97;6214889;23;20251;-80
2022/09/24 01:27:00;;;;;;;5.43;4.93;;;;;;;5.47;100.00;99253.63;6215791;23;20209;-80
2022/09/24 01:29:40;;;;;;;5.60;5.10;;;;;;;5.45;100.00;99261.81;6190655;23;20259;-80
2022/09/24 01:32:19;;;;;;;5.90;5.30;;;;;;;5.43;100.00;99260.34;6190535;23;20212;-81
2022/09/24 01:34:52;;;;;;;5.50;5.00;;;;;;;5.42;100.00;99264.81;6190752;23;20264;-81
2022/09/24 01:37:21;;;;;;;5.87;5.30;;;;;;;5.37;100.00;99255.78;6191594;23;20256;-81
2022/09/24 01:39:48;;;;;;;5.90;4.77;;;;;;;5.41;100.00;99259.72;6168324;23;20209;-80
2022/09/24 01:42:15;;;;;;;5.87;5.27;;;;;;;5.32;100.00;99251.06;6166974;23;20236;-80
2022/09/24 01:44:43;;;;;;;5.97;5.37;;;;;;;5.39;100.00;99248.47;6192590;23;20209;-80
2022/09/24 01:47:17;;;;;;;5.63;5.03;;;;;;;5.38;100.00;99247.63;6191943;23;20229;-80
2022/09/24 01:49:44;;;;;;;5.20;4.70;;;;;;;5.35;100.00;99239.25;6202867;23;20201;-80
2022/09/24 01:52:14;;;;;;;5.77;5.23;;;;;;;5.33;100.00;99242.91;6215852;23;20209;-80
2022/09/24 01:54:42;;;;;;;6.17;5.37;;;;;;;5.27;100.00;99235.72;6190105;23;20210;-80
2022/09/24 01:57:15;;;;;;;5.60;4.87;;;;;;;5.27;100.00;99235.72;6174217;23;20209;-82
2022/09/24 01:59:47;;;;;;;5.50;5.00;;;;;;;5.27;100.00;99235.72;6208562;23;20205;-82
2022/09/24 02:06:13;;;;;;;5.60;5.10;;;;;;;5.21;100.00;99225.06;6229329;23;20199;-82
2022/09/24 02:08:44;;;;;;;5.93;5.33;;;;;;;5.25;100.00;99226.31;6209275;23;20210;-82
2022/09/24 02:11:19;;;;;;;5.00;4.50;;;;;;;5.25;100.00;99218.34;6187510;23;20212;-82
2022/09/24 02:14:01;;;;;;;5.53;5.03;;;;;;;5.24;100.00;99219.34;6174529;23;20641;-81
2022/09/24 02:16:40;;;;;;;5.73;5.23;;;;;;;5.25;100.00;99224.47;6221997;23;20566;-81
2022/09/24 02:19:10;;;;;;;5.70;5.17;;;;;;;5.17;100.00;99222.00;6193637;23;20231;-80
2022/09/24 02:21:38;;;;;;;5.17;4.67;;;;;;;5.19;100.00;99229.75;6209525;23;20217;-81
2022/09/24 02:24:14;;;;;;;5.53;5.00;;;;;;;5.14;100.00;99234.81;6251011;22;20208;-82
2022/09/24 02:26:41;;;;;;;5.80;5.13;;;;;;;5.15;100.00;99224.00;6265159;22;20210;-81
2022/09/24 02:29:08;;;;;;;7.10;4.80;;;;;;;5.24;100.00;99216.69;6231370;22;20223;-81
2022/09/24 02:31:41;;;;;;;5.47;4.70;;;;;;;5.27;100.00;99218.97;6284772;22;20226;-81
2022/09/24 02:34:21;;;;;;;5.00;4.60;;;;;;;5.27;100.00;99221.63;6256785;22;20279;-81
2022/09/24 02:36:59;;;;;;;5.70;5.13;;;;;;;5.12;100.00;99213.78;6284492;22;20207;-81
2022/09/24 02:39:26;;;;;;;5.90;5.40;;;;;;;5.17;100.00;99215.84;6284030;22;20589;-81
2022/09/24 02:41:53;;;;;;;5.50;5.00;;;;;;;5.17;100.00;99216.69;6256349;22;20549;-81
2022/09/24 02:44:21;;;;;;;5.67;4.93;;;;;;;5.09;100.00;99205.38;6256346;22;20260;-80
2022/09/24 02:46:48;;;;;;;5.87;5.27;;;;;;;5.09;100.00;99208.00;6281977;22;20204;-80
2022/09/24 02:49:15;;;;;;;6.13;5.43;;;;;;;5.11;100.00;99211.31;6281202;22;20698;-81
2022/09/24 02:51:42;;;;;;;6.17;5.47;;;;;;;5.10;100.00;99214.97;6280594;22;20204;-80
2022/09/24 02:54:09;;;;;;;5.60;5.10;;;;;;;5.07;100.00;99215.38;6280023;22;20208;-80
2022/09/24 02:56:36;;;;;;;5.60;5.10;;;;;;;5.01;100.00;99216.97;6278588;22;20232;-80
2022/09/24 02:59:03;;;;;;;5.50;5.00;;;;;;;5.02;100.00;99213.31;6225691;22;20207;-80
2022/09/24 03:01:30;;;;;;;5.57;5.07;;;;;;;5.07;100.00;99218.03;6248975;22;20275;-81
2022/09/24 03:03:57;;;;;;;5.60;5.10;;;;;;;5.11;100.00;99209.47;6225906;22;20576;-80
2022/09/24 03:06:24;;;;;;;5.80;5.30;;;;;;;5.16;100.00;99211.56;6249883;22;20208;-80
2022/09/24 03:08:52;;;;;;;5.57;5.07;;;;;;;5.17;100.00;99202.56;6278047;22;20200;-80
2022/09/24 03:11:23;;;;;;;5.63;5.10;;;;;;;5.21;100.00;99207.31;6277929;22;20203;-80
2022/09/24 03:13:50;;;;;;;5.77;5.17;;;;;;;5.29;100.00;99203.66;6276510;22;20212;-80
2022/09/24 03:16:17;;;;;;;5.57;5.07;;;;;;;5.28;100.00;99212.63;6281182;22;20216;-80
2022/09/24 03:18:45;;;;;;;5.87;5.30;;;;;;;5.36;100.00;99209.84;6255885;22;20207;-81
2022/09/24 03:21:19;;;;;;;6.27;5.07;;;;;;;5.31;100.00;99197.16;6201295;22;20204;-82
2022/09/24 03:24:46;;;;;;;5.83;5.23;;;;;;;5.38;100.00;99199.81;6209434;23;20181;-82
2022/09/24 03:27:23;;;;;;;5.20;4.80;;;;;;;5.41;100.00;99199.44;6246437;23;20199;-82
2022/09/24 03:32:39;;;;;;;5.17;4.67;;;;;;;5.37;100.00;99205.31;6269801;23;20201;-82
2022/09/24 03:35:10;;;;;;;5.60;5.10;;;;;;;5.31;100.00;99197.16;6234435;23;20173;-80
2022/09/24 03:37:37;;;;;;;5.93;5.43;;;;;;;5.41;100.00;99199.44;6223440;23;20161;-80
2022/09/24 03:40:06;;;;;;;6.43;5.00;;;;;;;5.40;100.00;99195.16;6249634;23;20157;-81
2022/09/24 03:42:34;;;;;;;5.47;4.50;;;;;;;5.37;100.00;99195.50;6253829;23;20161;-81
2022/09/24 03:45:00;;;;;;;5.23;4.73;;;;;;;5.44;100.00;99198.22;6223378;23;20496;-80
2022/09/24 03:47:28;;;;;;;4.73;4.33;;;;;;;5.34;100.00;99195.91;6250647;23;20180;-80
2022/09/24 03:49:54;;;;;;;5.73;5.13;;;;;;;5.29;100.00;99195.69;6252094;23;20161;-82
2022/09/24 03:52:21;;;;;;;5.07;4.60;;;;;;;5.31;100.00;99199.81;6251385;23;20157;-80
2022/09/24 03:54:47;;;;;;;5.20;4.63;;;;;;;5.31;100.00;99201.63;6200164;23;20169;-80
2022/09/24 03:57:14;;;;;;;4.77;4.37;;;;;;;5.35;100.00;99194.09;6252191;23;20172;-81
2022/09/24 03:59:42;;;;;;;5.20;4.70;;;;;;;5.26;100.00;99191.59;6251945;23;20157;-81
2022/09/24 04:02:09;;;;;;;5.33;4.63;;;;;;;5.28;100.00;99196.69;6249832;23;20165;-80
2022/09/24 04:04:36;;;;;;;6.00;5.00;;;;;;;5.24;100.00;99198.94;6249037;23;20161;-80
2022/09/24 04:07:03;;;;;;;5.70;5.17;;;;;;;5.24;100.00;99198.94;6223574;23;20188;-78
2022/09/24 04:09:30;;;;;;;5.30;4.80;;;;;;;5.28;100.00;99200.19;6246025;23;20601;-79
2022/09/24 04:11:57;;;;;;;5.20;4.70;;;;;;;5.37;100.00;99192.84;6245643;23;20165;-79
2022/09/24 04:14:24;;;;;;;5.27;4.77;;;;;;;5.31;100.00;99189.19;6246020;23;20185;-78
2022/09/24 04:16:51;;;;;;;5.23;4.73;;;;;;;5.23;100.00;99185.84;6245671;23;20171;-79
2022/09/24 04:19:18;;;;;;;5.17;4.67;;;;;;;5.14;100.00;99184.34;6244103;23;20180;-79
2022/09/24 04:21:45;;;;;;;5.33;4.50;;;;;;;5.16;100.00;99188.47;6262755;22;20192;-78
2022/09/24 04:24:11;;;;;;;4.93;4.53;;;;;;;5.06;100.00;99182.69;6276288;22;20168;-79
2022/09/24 04:26:38;;;;;;;5.27;4.77;;;;;;;5.01;100.00;99189.59;6276179;22;20191;-79
2022/09/24 04:29:05;;;;;;;5.00;4.60;;;;;;;4.99;100.00;99178.38;6276608;22;20168;-78
2022/09/24 04:31:32;;;;;;;5.80;5.20;;;;;;;5.03;100.00;99172.47;6249442;22;20160;-78
2022/09/24 04:33:59;;;;;;;5.33;4.83;;;;;;;5.03;100.00;99190.22;6276288;22;20658;-79
2022/09/24 04:36:26;;;;;;;6.00;5.50;;;;;;;4.98;100.00;99196.13;6249576;22;20179;-78
2022/09/24 04:38:52;;;;;;;5.87;4.63;;;;;;;4.95;100.00;99199.16;6249109;22;20210;-79
2022/09/24 04:41:19;;;;;;;4.93;4.37;;;;;;;4.98;100.00;99204.09;6275602;22;20207;-79
2022/09/24 04:43:46;;;;;;;5.37;4.87;;;;;;;4.96;100.00;99197.31;6275797;22;20213;-78
2022/09/24 04:46:13;;;;;;;5.20;4.80;;;;;;;5.01;100.00;99206.34;6274960;22;20208;-78
2022/09/24 04:48:39;;;;;;;5.20;4.70;;;;;;;5.06;100.00;99203.94;6248699;22;20210;-78
2022/09/24 04:51:07;;;;;;;5.40;4.87;;;;;;;5.07;100.00;99200.25;6248787;22;20220;-78
2022/09/24 04:53:36;;;;;;;5.20;4.70;;;;;;;5.11;100.00;99193.53;6248704;22;20257;-78
2022/09/24 04:56:03;;;;;;;4.97;4.47;;;;;;;5.15;100.00;99180.69;6248572;22;20227;-79
2022/09/24 04:58:30;;;;;;;6.50;5.80;;;;;;;5.22;100.00;99178.91;6275554;22;20204;-79
2022/09/24 05:01:02;;;;;;;7.33;5.43;;;;;;;5.20;100.00;99183.59;6234349;22;20208;-78
2022/09/24 05:03:29;;;;;;;6.70;5.20;;;;;;;5.24;100.00;99198.94;6274620;22;20208;-79
2022/09/24 05:05:56;;;;;;;5.53;5.03;;;;;;;5.13;100.00;99206.63;6275804;22;20214;-79
2022/09/24 05:08:22;;;;;;;5.60;5.10;;;;;;;5.17;100.00;99207.88;6275601;22;20211;-78
2022/09/24 05:10:49;;;;;;;5.07;4.67;;;;;;;5.25;100.00;99194.44;6275515;22;20209;-79
2022/09/24 05:13:15;;;;;;;5.60;4.80;;;;;;;5.32;100.00;99187.31;6275575;22;20210;-79
2022/09/24 05:15:42;;;;;;;5.13;4.63;;;;;;;5.34;100.00;99193.25;6275372;22;20703;-78
2022/09/24 05:18:09;;;;;;;4.93;4.33;;;;;;;5.49;100.00;99199.28;6274804;22;20721;-79
2022/09/24 05:20:35;;;;;;;5.10;4.60;;;;;;;5.53;100.00;99199.69;6275086;22;20684;-78
2022/09/24 05:23:02;;;;;;;4.80;4.30;;;;;;;5.56;100.00;99192.13;6275541;22;20287;-79
2022/09/24 05:25:29;;;;;;;4.67;4.20;;;;;;;5.63;100.00;99200.16;6275094;22;20200;-78
2022/09/24 05:27:55;;;;;;;4.93;4.30;;;;;;;5.74;100.00;99210.19;6275311;22;20204;-79
2022/09/24 05:30:23;;;;;;;4.43;3.87;;;;;;;5.88;100.00;99195.97;6274831;22;20196;-79
2022/09/24 05:32:51;;;;;;;4.50;4.10;;;;;;;6.06;100.00;99198.91;6248456;22;20206;-79
2022/09/24 05:35:19;;;;;;;5.97;4.70;;;;;;;6.18;100.00;99186.66;6275250;22;20231;-78
2022/09/24 05:37:48;;;;;;;6.33;4.30;;;;;;;6.38;100.00;99189.34;6275819;22;20204;-78
2022/09/24 05:43:00;;;;;;;4.50;4.10;;;;;;;6.81;100.00;99196.94;6254312;22;20204;-79
2022/09/24 05:45:28;;;;;;;4.53;4.13;;;;;;;7.01;100.00;99195.03;6250393;22;20204;-78
2022/09/24 05:47:55;;;;;;;4.70;4.10;;;;;;;7.25;100.00;99204.22;6276441;22;20208;-79
2022/09/24 05:50:21;;;;;;;4.77;4.33;;;;;;;7.53;100.00;99205.59;6276767;22;20652;-78
2022/09/24 05:52:48;;;;;;;4.50;4.10;;;;;;;7.83;100.00;99219.22;6276842;22;20208;-79
2022/09/24 05:55:15;;;;;;;4.20;3.80;;;;;;;8.13;100.00;99222.16;6276860;22;20255;-78
2022/09/24 05:57:41;;;;;;;3.97;3.67;;;;;;;8.36;100.00;99235.81;6276969;22;20585;-79
2022/09/24 06:00:08;;;;;;;4.10;3.80;;;;;;;8.62;100.00;99236.69;6276669;22;20504;-79
2022/09/24 06:02:38;;;;;;;4.33;3.93;;;;;;;8.86;100.00;99227.03;6276989;22;20278;-78
2022/09/24 06:05:05;;;;;;;6.23;5.43;;;;;;;9.02;100.00;99226.47;6276815;22;20589;-79
2022/09/24 06:07:32;;;;;;;6.27;5.77;;;;;;;9.22;100.00;99224.44;6276729;22;20210;-78
2022/09/24 06:09:59;;;;;;;5.53;5.03;;;;;;;9.41;100.00;99228.78;6276858;22;20200;-79
2022/09/24 06:12:26;;;;;;;4.10;3.80;;;;;;;9.59;100.00;99228.78;6276338;22;20207;-79
2022/09/24 06:14:53;;;;;;;4.30;3.90;;;;;;;9.68;100.00;99222.09;6276542;22;20204;-78
2022/09/24 06:17:20;;;;;;;4.53;4.13;;;;;;;9.78;100.00;99223.44;6276634;22;20753;-79
2022/09/24 06:19:46;;;;;;;5.20;4.70;;;;;;;9.76;100.00;99226.31;6276717;22;20210;-79
2022/09/24 06:22:13;;;;;;;4.70;4.30;;;;;;;9.88;100.00;99229.91;6275886;22;20665;-78
2022/09/24 06:24:40;;;;;;;5.00;4.60;;;;;;;10.09;100.00;99236.63;6276652;22;20200;-78
2022/09/24 06:27:06;;;;;;;5.70;5.20;;;;;;;10.23;100.00;99243.47;6276330;22;20213;-78
2022/09/24 06:29:34;;;;;;;5.77;4.93;;;;;;;10.33;100.00;99232.22;6249881;22;20569;-78
2022/09/24 06:32:01;;;;;;;7.23;4.67;;;;;;;10.29;100.00;99225.69;6275955;22;20215;-78
2022/09/24 06:34:27;;;;;;;5.53;5.13;;;;;;;10.44;100.00;99224.22;6249067;22;20200;-79
2022/09/24 06:36:55;;;;;;;5.67;4.93;;;;;;;10.45;100.00;99217.03;6276218;22;20207;-78
2022/09/24 06:39:23;;;;;;;5.10;4.70;;;;;;;10.58;100.00;99208.78;6250018;22;20694;-79
2022/09/24 06:41:50;;;;;;;6.27;5.10;;;;;;;10.73;100.00;99203.00;6276658;22;20204;-78
2022/09/24 06:44:18;;;;;;;6.33;5.77;;;;;;;10.94;100.00;99200.56;6275928;22;20208;-80
2022/09/24 06:46:44;;;;;;;5.60;5.10;;;;;;;11.24;100.00;99199.63;6249879;22;20204;-79
2022/09/24 06:49:11;;;;;;;5.23;4.73;;;;;;;11.55;100.00;99195.75;6276036;22;20212;-79
2022/09/24 06:51:38;;;;;;;5.40;4.77;;;;;;;11.63;100.00;99182.75;6276046;22;20216;-79
2022/09/24 06:54:05;;;;;;;5.47;4.97;;;;;;;11.41;100.00;99197.84;6249288;22;20207;-79
2022/09/24 06:56:31;;;;;;;5.60;5.10;;;;;;;11.51;100.00;99200.75;6276410;22;20515;-79
2022/09/24 06:58:58;;;;;;;5.90;5.40;;;;;;;11.75;100.00;99205.06;6275982;22;20695;-79
2022/09/24 07:01:24;;;;;;;6.60;5.50;;;;;;;11.79;100.00;99202.72;6275809;22;20204;-79
2022/09/24 07:03:51;;;;;;;8.03;6.00;;;;;;;11.77;100.00;99202.94;6276274;22;20204;-79
2022/09/24 07:06:18;;;;;;;5.63;5.07;;;;;;;11.79;100.00;99200.84;6275509;22;20200;-78
2022/09/24 07:08:49;;;;;;;5.93;5.40;;;;;;;11.88;100.00;99212.03;6275979;22;20212;-79
2022/09/24 07:11:16;;;;;;;6.90;6.30;;;;;;;12.00;100.00;99210.09;6276380;22;20203;-78
2022/09/24 07:13:43;;;;;;;6.70;6.00;;;;;;;11.68;100.00;99203.53;6276108;22;20210;-78
2022/09/24 07:16:09;;;;;;;10.50;9.60;;;;;;;11.66;100.00;99201.09;6276121;22;20184;-79
2022/09/24 07:18:37;;;;;;;7.70;6.90;;;;;;;11.86;100.00;99206.06;6276322;22;20204;-78
2022/09/24 07:21:04;;;;;;;8.20;7.40;;;;;;;12.13;98.77;99214.41;6248884;22;20279;-78
2022/09/24 07:23:30;;;;;;;9.50;8.57;;;;;;;12.08;97.31;99209.75;6276081;22;20208;-78
2022/09/24 07:25:57;;;;;;;8.43;7.63;;;;;;;12.17;97.74;99211.00;6276002;22;21287;-78
2022/09/24 07:28:24;;;;;;;8.67;7.77;;;;;;;12.37;96.00;99202.47;6275362;22;20267;-78
2022/09/24 07:31:00;;;;;;;12.37;11.10;;;;;;;12.43;93.36;99193.47;6275750;22;20204;-78
2022/09/24 07:33:27;;;;;;;7.53;6.93;;;;;;;12.34;91.82;99209.16;6249367;22;20217;-78
2022/09/24 07:35:53;;;;;;;7.43;6.70;;;;;;;12.52;89.16;99197.38;6275916;22;20206;-78
2022/09/24 07:38:21;;;;;;;7.30;6.60;;;;;;;12.69;89.97;99189.34;6273949;22;20212;-78
2022/09/24 07:40:48;;;;;;;6.10;5.60;;;;;;;12.84;85.10;99200.34;6273856;22;20294;-78
2022/09/24 07:43:14;;;;;;;6.47;5.97;;;;;;;12.87;83.68;99197.19;6274001;22;20207;-78
2022/09/24 07:45:41;;;;;;;6.50;5.77;;;;;;;12.91;86.83;99192.13;6273929;22;20687;-78
2022/09/24 07:48:09;;;;;;;6.67;5.80;;;;;;;12.91;88.20;99195.63;6272830;22;20214;-77
2022/09/24 07:50:40;;;;;;;6.37;5.77;;;;;;;13.06;86.77;99197.75;6221934;22;20196;-78
2022/09/24 07:53:11;;;;;;;6.23;5.63;;;;;;;13.23;86.09;99195.88;6273921;22;20240;-78
2022/09/24 07:55:39;;;;;;;6.43;5.90;;;;;;;13.39;86.68;99200.38;6273884;22;20731;-78
2022/09/24 07:58:13;;;;;;;6.40;5.80;;;;;;;13.56;87.42;99190.41;6246851;22;20216;-78
2022/09/24 08:00:40;;;;;;;6.50;5.93;;;;;;;13.74;86.83;99186.59;6273068;22;20255;-78
2022/09/24 08:03:07;;;;;;;6.20;5.60;;;;;;;13.93;84.09;99189.78;6273124;22;20208;-78
2022/09/24 08:05:33;;;;;;;6.43;5.70;;;;;;;14.08;82.26;99189.97;6272936;22;20184;-78
2022/09/24 08:08:00;;;;;;;6.10;5.50;;;;;;;14.27;79.94;99191.25;6271625;22;20213;-78
2022/09/24 08:10:27;;;;;;;7.30;6.60;;;;;;;14.37;77.48;99188.66;6272342;22;20207;-77
2022/09/24 08:12:55;;;;;;;6.80;5.80;;;;;;;14.28;74.33;99179.38;6275527;22;20200;-79
2022/09/24 08:15:22;;;;;;;6.80;6.20;;;;;;;13.92;73.81;99180.06;6247844;22;20220;-79
2022/09/24 08:17:50;;;;;;;6.10;5.60;;;;;;;14.16;73.66;99185.97;6275984;22;20228;-80
2022/09/24 08:20:16;;;;;;;6.10;5.60;;;;;;;14.27;72.47;99176.97;6248783;22;20291;-79
2022/09/24 08:22:43;;;;;;;6.60;6.00;;;;;;;14.43;73.03;99186.81;6276344;22;20202;-79
2022/09/24 08:25:10;;;;;;;6.73;6.13;;;;;;;14.57;72.87;99190.72;6275862;22;20284;-80
2022/09/24 08:27:36;;;;;;;7.10;6.27;;;;;;;14.60;72.48;99192.13;6276323;22;20254;-80
2022/09/24 08:30:04;;;;;;;7.43;6.67;;;;;;;14.72;72.05;99192.75;6248745;22;20209;-78
2022/09/24 08:32:31;;;;;;;6.97;5.97;;;;;;;14.77;72.05;99199.00;6249414;22;20267;-79
2022/09/24 08:34:58;;;;;;;6.60;5.83;;;;;;;14.65;72.56;99192.16;6274957;22;20611;-81
2022/09/24 08:37:26;;;;;;;6.47;5.87;;;;;;;14.92;71.21;99190.22;6223894;22;20206;-80
2022/09/24 08:39:53;;;;;;;6.00;5.50;;;;;;;15.11;68.66;99196.84;6248586;22;20226;-80
2022/09/24 08:42:25;;;;;;;6.87;5.93;;;;;;;15.05;66.92;99188.97;6275054;22;20201;-80
2022/09/24 08:47:49;;;;;;;6.03;5.37;;;;;;;15.44;62.81;99193.00;6252895;22;20267;-80
2022/09/24 08:50:19;;;;;;;5.97;5.10;;;;;;;15.77;62.70;99191.84;6248669;22;20210;-81
2022/09/24 08:53:10;;;;;;;5.83;5.33;;;;;;;16.05;60.91;99196.78;6249106;22;20210;-81
2022/09/24 08:55:47;;;;;;;5.90;5.50;;;;;;;15.54;62.39;99195.00;6276046;22;20204;-80
2022/09/24 08:58:37;;;;;;;5.57;5.03;;;;;;;16.04;59.23;99192.50;6248970;22;20207;-80
2022/09/24 09:01:09;;;;;;;5.13;4.73;;;;;;;16.32;58.55;99193.09;6250498;22;20221;-80
2022/09/24 09:04:02;;;;;;;5.87;5.43;;;;;;;16.45;58.54;99198.00;6275901;22;20203;-78
2022/09/24 09:06:47;;;;;;;5.90;5.40;;;;;;;16.22;59.67;99188.47;6249009;22;20527;-78
2022/09/24 09:09:15;;;;;;;5.93;5.43;;;;;;;16.07;59.93;99188.44;6274519;22;20703;-78
2022/09/24 09:11:46;;;;;;;5.73;5.17;;;;;;;16.19;60.34;99184.41;6276098;22;20211;-79
2022/09/24 09:14:19;;;;;;;5.70;5.13;;;;;;;16.33;60.00;99182.00;6248761;22;20220;-79
2022/09/24 09:16:58;;;;;;;6.93;6.43;;;;;;;16.32;60.39;99187.69;6249140;22;20212;-79
2022/09/24 09:19:29;;;;;;;6.47;5.87;;;;;;;16.19;59.79;99187.09;6249466;22;20215;-79
2022/09/24 09:22:08;;;;;;;11.20;5.57;;;;;;;16.22;60.60;99191.19;6248844;22;20281;-79
2022/09/24 09:24:43;;;;;;;6.07;5.53;;;;;;;16.23;60.07;99184.72;6245463;22;20239;-79
2022/09/24 09:27:14;;;;;;;6.40;4.97;;;;;;;16.25;59.29;99182.53;6274266;22;20661;-79
2022/09/24 09:29:47;;;;;;;6.37;5.30;;;;;;;16.33;58.91;99183.91;6274223;22;20216;-79
2022/09/24 09:32:22;;;;;;;5.60;4.97;;;;;;;16.34;59.66;99180.13;6246819;22;20208;-79
2022/09/24 09:35:19;;;;;;;7.23;5.07;;;;;;;16.46;58.46;99176.09;6274822;22;20187;-80
2022/09/24 09:38:07;;;;;;;5.80;5.03;;;;;;;16.54;57.71;99169.34;6274177;22;20247;-79
2022/09/24 09:40:52;;;;;;;5.00;4.50;;;;;;;16.56;57.44;99172.59;6273875;22;20671;-78
2022/09/24 09:43:19;;;;;;;7.70;4.37;;;;;;;16.60;57.47;99171.81;6247345;22;20228;-78
2022/09/24 09:46:06;;;;;;;7.30;4.80;;;;;;;16.79;56.71;99168.56;6273864;22;20691;-79
2022/09/24 09:48:46;;;;;;;7.80;5.33;;;;;;;16.95;56.97;99164.75;6273812;22;20279;-78
2022/09/24 09:51:21;;;;;;;6.37;5.37;;;;;;;16.91;56.09;99161.78;6247511;22;20200;-82
2022/09/24 09:54:00;;;;;;;6.00;4.83;;;;;;;17.04;55.05;99161.22;6247259;22;20676;-78
2022/09/24 09:56:29;;;;;;;5.67;5.17;;;;;;;17.06;56.13;99158.25;6247483;22;20318;-78
2022/09/24 09:59:05;;;;;;;5.63;5.10;;;;;;;17.30;55.23;99156.59;6273883;22;20204;-78
2022/09/24 10:01:35;;;;;;;5.80;5.20;;;;;;;17.48;54.57;99153.28;6273760;22;20296;-79
2022/09/24 10:04:03;;;;;;;6.30;5.17;;;;;;;17.51;54.79;99146.50;6246752;22;20663;-77
2022/09/24 10:06:33;;;;;;;5.90;4.80;;;;;;;17.80;54.77;99152.94;6247371;22;20271;-78
2022/09/24 10:09:15;;;;;;;5.83;5.23;;;;;;;17.89;53.29;99147.72;6272451;22;20206;-78
2022/09/24 10:11:42;;;;;;;7.50;4.73;;;;;;;18.13;52.95;99137.84;6274232;22;20285;-78
2022/09/24 10:14:10;;;;;;;6.60;4.40;;;;;;;18.35;52.99;99132.81;6258216;22;20204;-78
2022/09/24 10:16:40;;;;;;;5.80;5.30;;;;;;;18.15;53.45;99132.16;6273407;22;20180;-79
2022/09/24 10:19:19;;;;;;;7.53;4.80;;;;;;;18.66;51.24;99135.34;6273891;22;20219;-78
2022/09/24 10:21:46;;;;;;;5.60;5.10;;;;;;;18.60;50.63;99142.69;6246827;22;20457;-78
2022/09/24 10:24:20;;;;;;;5.87;4.63;;;;;;;18.95;50.31;99138.03;6246477;22;20199;-81
2022/09/24 10:26:47;;;;;;;7.10;5.23;;;;;;;18.07;52.35;99138.97;6247184;22;20208;-78
2022/09/24 10:32:16;;;;;;;5.40;4.87;;;;;;;18.53;51.54;99144.06;6273121;22;20722;-78
2022/09/24 10:34:55;;;;;;;5.30;4.63;;;;;;;19.18;51.15;99134.53;6273566;22;20219;-78
2022/09/24 10:37:21;;;;;;;6.07;4.40;;;;;;;19.59;50.21;99126.81;6273247;22;20212;-79
2022/09/24 10:40:21;;;;;;;4.87;4.40;;;;;;;19.29;49.69;99123.31;6247044;22;20692;-78
2022/09/24 10:42:54;;;;;;;5.97;4.50;;;;;;;20.00;49.00;99125.16;6245451;22;20224;-78
2022/09/24 10:45:27;;;;;;;5.40;4.90;;;;;;;20.50;47.29;99118.19;6273695;22;20229;-78
2022/09/24 10:48:06;;;;;;;5.10;4.70;;;;;;;20.14;47.33;99126.06;6273450;22;20544;-77
2022/09/24 10:50:42;;;;;;;4.90;4.40;;;;;;;20.50;46.43;99129.06;6273398;22;20200;-78
2022/09/24 10:53:13;;;;;;;7.27;4.73;;;;;;;20.75;47.06;99127.84;6246932;22;20202;-78
2022/09/24 10:55:52;;;;;;;5.07;4.60;;;;;;;20.86;46.21;99134.72;6274986;22;20189;-78
2022/09/24 10:58:59;;;;;;;5.00;4.50;;;;;;;21.12;45.85;99134.28;6272948;22;20210;-78
2022/09/24 11:01:31;;;;;;;5.00;4.60;;;;;;;20.87;46.34;99133.63;6247111;22;20290;-77
2022/09/24 11:04:12;;;;;;;5.87;5.37;;;;;;;20.89;46.31;99134.16;6273697;22;20211;-78
2022/09/24 11:06:49;;;;;;;5.83;5.33;;;;;;;20.73;48.00;99138.22;6272161;22;20205;-80
2022/09/24 11:09:29;;;;;;;5.20;4.80;;;;;;;20.35;48.41;99139.38;6273203;22;20265;-78
2022/09/24 11:12:07;;;;;;;5.63;4.80;;;;;;;21.02;46.95;99140.72;6244684;22;20207;-78
2022/09/24 11:15:06;;;;;;;5.17;4.67;;;;;;;21.33;46.20;99136.34;6271013;22;20293;-78
2022/09/24 11:17:50;;;;;;;5.73;4.93;;;;;;;20.71;47.70;99131.47;6273073;22;20233;-78
2022/09/24 11:20:25;;;;;;;5.90;5.40;;;;;;;19.39;50.09;99127.00;6272410;22;20281;-78
2022/09/24 11:23:07;;;;;;;5.33;4.93;;;;;;;20.33;48.21;99130.72;6272606;22;20556;-79
2022/09/24 11:25:49;;;;;;;5.67;5.00;;;;;;;20.31;48.38;99133.72;6246813;22;20717;-78
2022/09/24 11:28:38;;;;;;;6.13;5.37;;;;;;;19.43;49.60;99123.41;6245446;22;20219;-82
2022/09/24 11:31:32;;;;;;;5.77;5.27;;;;;;;19.42;50.62;99123.69;6273360;22;20633;-78
2022/09/24 11:34:05;;;;;;;6.07;5.37;;;;;;;19.86;49.59;99116.13;6271278;22;20279;-78
2022/09/24 11:36:40;;;;;;;6.00;5.40;;;;;;;20.03;49.02;99108.25;6273019;22;20211;-78
2022/09/24 11:39:31;;;;;;;6.13;5.20;;;;;;;19.30;51.65;99110.53;6273173;22;20235;-79
2022/09/24 11:42:27;;;;;;;5.60;5.00;;;;;;;20.32;49.44;99123.66;6273027;22;20204;-78
2022/09/24 11:45:23;;;;;;;5.90;4.80;;;;;;;19.86;50.13;99113.41;6272429;22;20228;-78
2022/09/24 11:48:02;;;;;;;7.17;5.43;;;;;;;20.19;48.63;99117.00;6245871;22;20620;-84
2022/09/24 11:50:50;;;;;;;5.30;4.90;;;;;;;20.64;48.04;99107.34;6272479;22;20211;-78
2022/09/24 11:53:40;;;;;;;5.30;4.80;;;;;;;20.95;47.15;99119.31;6272833;22;20216;-78
2022/09/24 11:56:32;;;;;;;5.80;5.00;;;;;;;20.37;47.45;99110.78;6245495;22;20211;-78
2022/09/24 11:59:21;;;;;;;5.50;4.90;;;;;;;20.70;47.92;99102.63;6245830;22;20211;-78
2022/09/24 12:01:57;;;;;;;5.80;4.67;;;;;;;20.42;49.68;99105.25;6246673;22;20206;-78
2022/09/24 12:04:48;;;;;;;6.33;4.63;;;;;;;20.71;48.18;99101.53;6244006;22;20274;-78
2022/09/24 12:07:22;;;;;;;4.97;4.47;;;;;;;21.13;47.13;99103.22;6245874;22;20260;-78
2022/09/24 12:09:54;;;;;;;6.60;4.40;;;;;;;21.24;46.95;99096.47;6221587;22;20217;-78
2022/09/24 12:12:29;;;;;;;4.20;3.90;;;;;;;21.48;46.71;99094.38;6245546;22;20291;-78
2022/09/24 12:15:18;;;;;;;4.40;4.00;;;;;;;21.57;47.20;99087.09;6246080;22;20645;-78